createdAt,value
2018-07-15T00:01:32.397Z,2.93
2018-07-15T00:04:01.109Z,2.97
2018-07-15T00:06:30.978Z,3.07
2018-07-15T00:09:00.406Z,3.17
2018-07-15T00:11:29.413Z,3.17
2018-07-15T00:13:59.049Z,3.00
2018-07-15T00:16:29.282Z,3.07
2018-07-15T00:18:58.593Z,3.40
2018-07-15T00:21:27.121Z,3.23
2018-07-15T00:23:55.653Z,3.20
2018-07-15T00:26:24.266Z,3.57
2018-07-15T00:28:53.194Z,3.03
2018-07-15T00:31:22.031Z,2.67
2018-07-15T00:33:50.947Z,3.13
2018-07-15T00:36:20.309Z,3.13
2018-07-15T00:38:50.176Z,3.33
2018-07-15T00:41:18.338Z,3.30
2018-07-15T00:43:46.947Z,4.90
2018-07-15T00:46:15.217Z,2.60
2018-07-15T00:48:43.540Z,2.63
2018-07-15T00:51:12.141Z,2.27
2018-07-15T00:53:40.677Z,2.87
2018-07-15T00:56:09.365Z,2.60
2018-07-15T00:58:39.237Z,2.87
2018-07-15T01:01:07.847Z,2.87
2018-07-15T01:03:36.473Z,2.83
2018-07-15T01:06:04.948Z,2.87
2018-07-15T01:08:33.773Z,2.90
2018-07-15T01:11:02.820Z,3.20
2018-07-15T01:13:32.163Z,3.10
2018-07-15T01:16:02.050Z,3.33
2018-07-15T01:18:31.070Z,3.00
2018-07-15T01:21:00.062Z,3.00
2018-07-15T01:23:29.570Z,2.80
2018-07-15T01:25:58.171Z,2.93
2018-07-15T01:28:27.778Z,3.47
2018-07-15T01:30:56.189Z,3.00
2018-07-15T01:33:24.825Z,3.33
2018-07-15T01:35:53.588Z,4.03
2018-07-15T01:38:22.197Z,4.20
2018-07-15T01:40:51.689Z,5.43
2018-07-15T01:43:20.057Z,4.63
2018-07-15T01:45:49.148Z,4.87
2018-07-15T01:48:18.077Z,5.03
2018-07-15T01:50:46.816Z,5.03
2018-07-15T01:53:15.410Z,4.47
2018-07-15T01:55:44.922Z,4.50
2018-07-15T01:58:13.437Z,4.40
2018-07-15T02:00:42.158Z,4.47
2018-07-15T02:03:11.113Z,4.63
2018-07-15T02:05:39.858Z,4.83
2018-07-15T02:08:08.925Z,5.30
2018-07-15T02:10:37.050Z,4.83
2018-07-15T02:13:07.362Z,7.43
2018-07-15T02:15:36.610Z,6.33
2018-07-15T02:18:04.753Z,5.30
2018-07-15T02:20:33.978Z,6.87
2018-07-15T02:23:03.564Z,6.47
2018-07-15T02:25:32.602Z,7.33
2018-07-15T02:28:00.730Z,6.13
2018-07-15T02:30:29.066Z,6.03
2018-07-15T02:32:57.830Z,7.53
2018-07-15T02:35:25.934Z,6.10
2018-07-15T02:37:54.790Z,5.13
2018-07-15T02:40:24.056Z,6.13
2018-07-15T02:42:52.855Z,4.83
2018-07-15T02:45:21.845Z,6.07
2018-07-15T02:47:50.718Z,5.13
2018-07-15T02:50:20.022Z,6.90
2018-07-15T02:52:48.085Z,5.50
2018-07-15T02:55:16.566Z,7.87
2018-07-15T02:57:45.375Z,5.10
2018-07-15T03:00:13.983Z,5.37
2018-07-15T03:02:43.854Z,6.20
2018-07-15T03:05:12.091Z,5.67
2018-07-15T03:07:40.596Z,5.67
2018-07-15T03:10:09.643Z,6.83
2018-07-15T03:12:37.893Z,6.17
2018-07-15T03:15:06.833Z,8.03
2018-07-15T03:17:35.498Z,7.90
2018-07-15T03:20:03.997Z,10.83
2018-07-15T03:22:32.962Z,8.50
2018-07-15T03:25:01.493Z,9.07
2018-07-15T03:27:30.355Z,6.70
2018-07-15T03:29:59.833Z,8.67
2018-07-15T03:32:28.901Z,9.53
2018-07-15T03:34:58.806Z,8.60
2018-07-15T03:37:27.970Z,9.77
2018-07-15T03:39:57.905Z,7.73
2018-07-15T03:42:26.978Z,7.20
2018-07-15T03:44:55.328Z,5.83
2018-07-15T03:47:23.849Z,5.93
2018-07-15T03:49:52.680Z,5.43
2018-07-15T03:52:21.702Z,5.33
2018-07-15T03:54:50.681Z,5.60
2018-07-15T03:57:20.572Z,4.67
2018-07-15T03:59:50.937Z,5.77
2018-07-15T04:02:19.274Z,5.87
2018-07-15T04:04:48.761Z,8.77
2018-07-15T04:07:18.506Z,6.13
2018-07-15T04:09:46.604Z,8.23
2018-07-15T04:12:15.982Z,6.20
2018-07-15T04:14:45.467Z,6.00
2018-07-15T04:17:13.869Z,6.53
2018-07-15T04:19:43.774Z,6.97
2018-07-15T04:22:12.145Z,7.57
2018-07-15T04:24:41.738Z,6.73
2018-07-15T04:27:10.667Z,5.40
2018-07-15T04:29:39.095Z,6.00
2018-07-15T04:32:09.081Z,6.70
2018-07-15T04:34:37.841Z,6.53
2018-07-15T04:37:06.762Z,7.70
2018-07-15T04:39:36.339Z,5.70
2018-07-15T04:42:05.078Z,8.03
2018-07-15T04:44:33.241Z,9.57
2018-07-15T04:47:01.837Z,8.43
2018-07-15T04:49:30.676Z,12.00
2018-07-15T04:52:00.460Z,10.40
2018-07-15T04:54:30.510Z,9.83
2018-07-15T04:57:00.563Z,9.20
2018-07-15T04:59:28.932Z,8.60
2018-07-15T05:01:57.588Z,9.33
2018-07-15T05:04:26.618Z,7.47
2018-07-15T05:06:55.502Z,7.03
2018-07-15T05:09:24.835Z,6.53
2018-07-15T05:11:54.750Z,7.13
2018-07-15T05:14:23.611Z,7.27
2018-07-15T05:16:52.641Z,8.50
2018-07-15T05:19:21.437Z,6.80
2018-07-15T05:21:49.673Z,6.53
2018-07-15T05:24:19.152Z,6.97
2018-07-15T05:26:47.659Z,7.33
2018-07-15T05:29:16.647Z,7.20
2018-07-15T05:31:46.351Z,7.60
2018-07-15T05:34:15.346Z,6.90
2018-07-15T05:36:43.498Z,6.10
2018-07-15T05:39:12.320Z,7.17
2018-07-15T05:41:41.282Z,6.45
2018-07-15T05:44:09.686Z,6.03
2018-07-15T05:46:38.896Z,5.20
2018-07-15T05:49:08.565Z,6.20
2018-07-15T05:51:37.126Z,5.22
2018-07-15T05:54:05.606Z,4.95
2018-07-15T05:56:34.644Z,4.10
2018-07-15T05:59:04.601Z,5.50
2018-07-15T06:01:33.180Z,4.37
2018-07-15T06:04:01.743Z,4.80
2018-07-15T06:06:30.937Z,4.40
2018-07-15T06:08:59.529Z,3.85
2018-07-15T06:11:28.744Z,4.35
2018-07-15T06:13:57.641Z,3.80
2018-07-15T06:16:25.785Z,3.95
2018-07-15T06:18:54.345Z,4.00
2018-07-15T06:21:22.435Z,5.90
2018-07-15T06:23:52.365Z,3.83
2018-07-15T06:26:20.757Z,3.42
2018-07-15T06:28:49.514Z,2.98
2018-07-15T06:31:17.628Z,2.35
2018-07-15T06:33:46.593Z,1.77
2018-07-15T06:36:16.085Z,1.50
2018-07-15T06:38:44.864Z,1.55
2018-07-15T06:41:14.655Z,1.15
2018-07-15T06:43:45.547Z,0.85
2018-07-15T06:46:15.514Z,0.93
2018-07-15T06:48:44.881Z,0.70
2018-07-15T06:51:14.499Z,0.70
2018-07-15T06:53:43.119Z,0.65
2018-07-15T06:56:12.174Z,0.60
2018-07-15T06:58:40.989Z,0.50
2018-07-15T07:01:10.110Z,1.40
2018-07-15T07:03:40.209Z,0.70
2018-07-15T07:06:08.429Z,0.55
2018-07-15T07:08:38.634Z,0.60
2018-07-15T07:11:07.641Z,0.42
2018-07-15T07:13:37.063Z,0.60
2018-07-15T07:16:06.037Z,0.50
2018-07-15T07:18:34.136Z,0.50
2018-07-15T07:21:03.144Z,1.05
2018-07-15T07:23:32.158Z,0.60
2018-07-15T07:26:01.538Z,0.85
2018-07-15T07:28:30.427Z,1.75
2018-07-15T07:30:59.685Z,0.50
2018-07-15T07:33:28.286Z,0.50
2018-07-15T07:35:57.050Z,0.60
2018-07-15T07:38:26.181Z,0.50
2018-07-15T07:40:54.661Z,0.50
2018-07-15T07:43:22.933Z,0.50
2018-07-15T07:45:51.397Z,0.50
2018-07-15T07:48:20.013Z,0.53
2018-07-15T07:50:48.284Z,0.60
2018-07-15T07:53:17.344Z,0.70
2018-07-15T07:55:46.309Z,0.57
2018-07-15T07:58:15.132Z,0.62
2018-07-15T08:00:44.144Z,0.90
2018-07-15T08:03:12.952Z,0.70
2018-07-15T08:05:41.994Z,0.82
2018-07-15T08:08:10.717Z,1.15
2018-07-15T08:10:39.522Z,0.90
2018-07-15T08:13:09.431Z,1.00
2018-07-15T08:15:38.466Z,0.80
2018-07-15T08:18:07.476Z,0.90
2018-07-15T08:20:36.614Z,1.10
2018-07-15T08:23:06.455Z,1.15
2018-07-15T08:25:35.353Z,0.98
2018-07-15T08:28:03.336Z,1.15
2018-07-15T08:30:42.989Z,1.40
2018-07-15T08:33:11.641Z,1.17
2018-07-15T08:35:41.036Z,1.32
2018-07-15T08:38:10.125Z,1.45
2018-07-15T08:40:38.874Z,1.80
2018-07-15T08:43:07.337Z,1.90
2018-07-15T08:45:36.382Z,1.60
2018-07-15T08:48:05.162Z,1.90
2018-07-15T08:50:33.242Z,1.90
2018-07-15T08:53:02.236Z,2.25
2018-07-15T08:55:30.637Z,2.12
2018-07-15T08:58:00.093Z,2.62
2018-07-15T09:00:29.538Z,2.55
2018-07-15T09:02:59.124Z,3.62
2018-07-15T09:05:27.958Z,3.37
2018-07-15T09:07:56.520Z,3.47
2018-07-15T09:10:25.862Z,2.87
2018-07-15T09:12:54.433Z,3.05
2018-07-15T09:15:23.469Z,3.33
2018-07-15T09:17:52.602Z,2.60
2018-07-15T09:20:22.301Z,3.67
2018-07-15T09:22:50.870Z,2.95
2018-07-15T09:25:19.921Z,2.10
2018-07-15T09:27:49.086Z,2.17
2018-07-15T09:30:17.256Z,1.87
2018-07-15T09:32:46.181Z,2.47
2018-07-15T09:35:15.361Z,2.30
2018-07-15T09:37:44.841Z,2.77
2018-07-15T09:40:14.037Z,2.95
2018-07-15T09:42:43.321Z,3.12
2018-07-15T09:45:12.484Z,2.55
2018-07-15T09:47:42.483Z,2.85
2018-07-15T09:50:10.693Z,2.50
2018-07-15T09:52:40.633Z,3.17
2018-07-15T09:55:09.714Z,2.72
2018-07-15T09:57:39.030Z,2.42
2018-07-15T10:00:08.621Z,2.75
2018-07-15T10:02:37.164Z,2.60
2018-07-15T10:05:06.506Z,2.37
2018-07-15T10:07:35.638Z,2.27
2018-07-15T10:10:05.101Z,2.62
2018-07-15T10:12:34.184Z,2.42
2018-07-15T10:15:04.149Z,2.70
2018-07-15T10:17:33.617Z,2.92
2018-07-15T10:20:03.452Z,2.72
2018-07-15T10:22:32.917Z,2.77
2018-07-15T10:25:01.061Z,2.72
2018-07-15T10:27:30.650Z,2.80
2018-07-15T10:30:00.180Z,3.40
2018-07-15T10:32:29.166Z,3.37
2018-07-15T10:34:58.494Z,3.00
2018-07-15T10:37:27.079Z,3.45
2018-07-15T10:39:55.035Z,2.30
2018-07-15T10:42:23.793Z,2.58
2018-07-15T10:44:53.682Z,2.30
2018-07-15T10:47:23.194Z,2.55
2018-07-15T10:49:51.910Z,2.75
2018-07-15T10:52:21.953Z,2.65
2018-07-15T10:54:50.492Z,6.08
2018-07-15T10:57:20.286Z,2.55
2018-07-15T10:59:48.556Z,2.52
2018-07-15T11:02:17.013Z,2.67
2018-07-15T11:04:45.171Z,3.00
2018-07-15T11:07:13.418Z,2.60
2018-07-15T11:09:42.105Z,2.45
2018-07-15T11:12:10.758Z,3.10
2018-07-15T11:14:39.012Z,2.50
2018-07-15T11:17:07.727Z,2.77
2018-07-15T11:19:36.834Z,3.00
2018-07-15T11:22:05.489Z,2.52
2018-07-15T11:24:33.903Z,2.27
2018-07-15T11:27:03.937Z,2.85
2018-07-15T11:29:32.654Z,3.30
2018-07-15T11:32:01.671Z,3.02
2018-07-15T11:34:29.922Z,3.10
2018-07-15T11:36:58.397Z,2.70
2018-07-15T11:39:27.269Z,2.77
2018-07-15T11:41:56.429Z,2.58
2018-07-15T11:44:24.846Z,2.12
2018-07-15T11:46:53.748Z,2.50
2018-07-15T11:49:22.573Z,2.80
2018-07-15T11:51:51.566Z,2.98
2018-07-15T11:54:20.964Z,2.80
2018-07-15T11:56:50.606Z,2.45
2018-07-15T11:59:19.771Z,2.42
2018-07-15T12:01:49.194Z,2.60
2018-07-15T12:04:17.555Z,2.27
2018-07-15T12:06:46.733Z,2.70
2018-07-15T12:09:16.677Z,2.25
2018-07-15T12:11:45.012Z,2.65
2018-07-15T12:14:14.946Z,2.85
2018-07-15T12:16:43.050Z,2.90
2018-07-15T12:19:12.925Z,2.37
2018-07-15T12:21:41.459Z,2.50
2018-07-15T12:24:10.526Z,2.67
2018-07-15T12:26:43.662Z,2.62
2018-07-15T12:29:12.238Z,2.80
2018-07-15T12:31:41.003Z,2.60
2018-07-15T12:34:09.198Z,2.80
2018-07-15T12:36:38.036Z,2.50
2018-07-15T12:39:08.176Z,3.67
2018-07-15T12:41:37.993Z,2.70
2018-07-15T12:44:06.991Z,2.15
2018-07-15T12:46:35.749Z,2.83
2018-07-15T12:49:04.539Z,3.02
2018-07-15T12:51:33.558Z,3.27
2018-07-15T12:54:01.834Z,2.83
2018-07-15T12:56:30.706Z,2.27
2018-07-15T12:59:01.920Z,2.80
2018-07-15T13:01:31.802Z,2.67
2018-07-15T13:04:00.699Z,3.17
2018-07-15T13:06:28.978Z,2.52
2018-07-15T13:08:57.620Z,2.90
2018-07-15T13:11:25.827Z,2.50
2018-07-15T13:13:55.653Z,2.60
2018-07-15T13:16:24.345Z,2.37
2018-07-15T13:18:53.602Z,2.62
2018-07-15T14:43:21.325Z,2.62
2018-07-15T14:45:50.220Z,1.85
2018-07-15T14:48:18.821Z,2.00
2018-07-15T14:50:47.534Z,2.47
2018-07-15T14:53:16.411Z,2.22
2018-07-15T14:55:44.675Z,2.33
2018-07-15T14:58:12.983Z,1.85
2018-07-15T15:00:41.546Z,2.75
2018-07-15T15:03:11.043Z,2.20
2018-07-15T15:05:40.694Z,2.22
2018-07-15T15:08:09.465Z,2.00
2018-07-15T15:10:38.720Z,2.25
2018-07-15T15:13:08.447Z,2.20
2018-07-15T15:15:37.362Z,2.20
2018-07-15T15:18:05.642Z,2.30
2018-07-15T15:20:34.121Z,2.37
2018-07-15T15:23:03.128Z,2.33
2018-07-15T15:25:31.720Z,2.20
2018-07-15T15:28:00.631Z,2.17
2018-07-15T15:30:29.115Z,2.37
2018-07-15T15:32:58.682Z,2.22
2018-07-15T15:35:28.838Z,1.98
2018-07-15T15:37:58.008Z,2.40
2018-07-15T15:40:27.370Z,2.72
2018-07-15T15:42:55.985Z,2.25
2018-07-15T15:45:24.921Z,3.35
2018-07-15T15:47:53.766Z,2.30
2018-07-15T15:50:22.984Z,2.05
2018-07-15T15:52:51.199Z,2.20
2018-07-15T15:55:19.508Z,2.20
2018-07-15T15:57:48.515Z,2.00
2018-07-15T16:00:17.304Z,2.20
2018-07-15T16:02:45.922Z,2.15
2018-07-15T16:05:14.050Z,1.90
2018-07-15T16:07:43.055Z,2.62
2018-07-15T16:10:12.059Z,2.00
2018-07-15T16:12:40.582Z,2.30
2018-07-15T16:15:08.485Z,2.00
2018-07-15T16:17:37.336Z,2.10
2018-07-15T16:20:05.971Z,2.35
2018-07-15T16:22:35.176Z,2.15
2018-07-15T16:25:04.047Z,2.67
2018-07-15T16:27:32.583Z,2.25
2018-07-15T16:30:01.581Z,2.42
2018-07-15T16:32:30.406Z,2.50
2018-07-15T16:34:59.229Z,2.55
2018-07-15T16:37:28.017Z,2.15
2018-07-15T16:39:56.968Z,2.58
2018-07-15T16:42:25.805Z,2.75
2018-07-15T16:44:55.058Z,1.82
2018-07-15T16:47:23.937Z,2.15
2018-07-15T16:49:51.927Z,2.27
2018-07-15T16:52:20.486Z,2.30
2018-07-15T16:54:49.661Z,2.08
2018-07-15T16:57:18.505Z,2.10
2018-07-15T16:59:47.246Z,2.47
2018-07-15T17:02:15.722Z,2.35
2018-07-15T17:04:45.308Z,2.20
2018-07-15T17:07:15.051Z,2.35
2018-07-15T17:09:44.263Z,2.52
2018-07-15T17:12:13.087Z,2.62
2018-07-15T17:14:42.178Z,2.22
2018-07-15T17:17:11.024Z,2.40
2018-07-15T17:19:39.573Z,3.12
2018-07-15T17:22:08.455Z,2.08
2018-07-15T17:24:38.810Z,2.22
2018-07-15T17:27:08.291Z,2.52
2018-07-15T17:29:37.178Z,2.40
2018-07-15T17:32:07.509Z,2.70
2018-07-15T17:34:37.342Z,2.42
2018-07-15T17:37:06.667Z,2.67
2018-07-15T17:39:36.336Z,2.70
2018-07-15T17:42:05.173Z,2.40
2018-07-15T17:44:33.838Z,2.62
2018-07-15T17:47:03.326Z,2.62
2018-07-15T17:49:33.143Z,2.35
2018-07-15T17:52:01.874Z,2.40
2018-07-15T17:54:30.321Z,2.62
2018-07-15T17:56:58.957Z,2.42
2018-07-15T17:59:27.851Z,2.87
2018-07-15T18:01:57.007Z,2.58
2018-07-15T18:04:26.494Z,2.80
2018-07-15T18:06:55.891Z,2.52
2018-07-15T18:09:24.885Z,2.70
2018-07-15T18:11:54.736Z,3.35
2018-07-15T18:14:24.232Z,2.85
2018-07-15T18:16:52.545Z,2.87
2018-07-15T18:19:21.451Z,2.92
2018-07-15T18:21:50.282Z,2.77
2018-07-15T18:24:19.121Z,2.83
2018-07-15T18:26:48.126Z,2.87
2018-07-15T18:29:16.966Z,3.35
2018-07-15T18:31:46.407Z,3.30
2018-07-15T18:34:14.700Z,3.05
2018-07-15T18:36:44.322Z,3.00
2018-07-15T18:39:13.778Z,3.55
2018-07-15T18:41:42.207Z,3.25
2018-07-15T18:44:11.030Z,4.42
2018-07-15T18:46:39.230Z,3.10
2018-07-15T18:49:08.510Z,4.12
2018-07-15T18:51:36.993Z,3.00
2018-07-15T18:54:05.213Z,3.20
2018-07-15T18:56:35.305Z,3.17
2018-07-15T18:59:04.478Z,2.80
2018-07-15T19:01:33.858Z,3.12
2018-07-15T19:04:02.866Z,3.30
2018-07-15T19:08:01.369Z,2.90
2018-07-15T19:10:30.638Z,3.22
2018-07-15T19:12:59.778Z,3.90
2018-07-15T19:15:28.165Z,3.02
2018-07-15T19:17:56.303Z,2.95
2018-07-15T19:20:25.191Z,3.52
2018-07-15T19:22:55.011Z,3.02
2018-07-15T19:25:23.606Z,3.70
2018-07-15T19:27:52.187Z,2.98
2018-07-15T19:30:21.360Z,2.58
2018-07-15T19:32:49.626Z,3.40
2018-07-15T19:35:18.269Z,3.02
2018-07-15T19:37:46.953Z,3.00
2018-07-15T19:40:16.146Z,3.10
2018-07-15T19:42:45.191Z,2.85
2018-07-15T19:45:13.674Z,3.27
2018-07-15T19:47:42.269Z,3.52
2018-07-15T19:50:10.771Z,3.30
2018-07-15T19:52:39.458Z,3.30
2018-07-15T19:55:08.159Z,3.60
2018-07-15T19:57:36.826Z,3.40
2018-07-15T20:00:06.041Z,2.98
2018-07-15T20:02:35.272Z,3.40
2018-07-15T20:05:04.026Z,4.12
2018-07-15T20:07:32.773Z,3.35
2018-07-15T20:10:00.894Z,3.27
2018-07-15T20:12:30.297Z,3.87
2018-07-15T20:14:59.329Z,3.40
2018-07-15T20:17:28.058Z,3.08
2018-07-15T20:19:58.854Z,3.45
2018-07-15T20:22:29.440Z,3.35
2018-07-15T20:24:58.007Z,4.03
2018-07-15T20:27:26.193Z,3.42
2018-07-15T20:29:54.697Z,3.17
2018-07-15T20:32:22.997Z,3.50
2018-07-15T20:34:51.808Z,3.52
2018-07-15T20:37:20.041Z,3.60
2018-07-15T20:39:48.817Z,3.33
2018-07-15T20:42:18.817Z,4.35
2018-07-15T20:44:47.117Z,3.40
2018-07-15T20:47:15.753Z,3.90
2018-07-15T20:49:44.117Z,3.50
2018-07-15T20:52:12.952Z,4.10
2018-07-15T20:54:41.819Z,4.10
2018-07-15T20:57:10.466Z,3.90
2018-07-15T20:59:40.376Z,4.10
2018-07-15T21:02:09.706Z,3.95
2018-07-15T21:04:38.050Z,3.98
2018-07-15T21:07:06.648Z,3.52
2018-07-15T21:09:36.089Z,4.12
2018-07-15T21:12:05.549Z,4.08
2018-07-15T21:14:33.903Z,3.80
2018-07-15T21:17:02.877Z,4.28
2018-07-15T21:19:31.519Z,3.60
2018-07-15T21:22:00.748Z,4.22
2018-07-15T21:24:29.913Z,4.95
2018-07-15T21:26:58.764Z,5.67
2018-07-15T21:29:27.945Z,6.22
2018-07-15T21:31:57.776Z,6.17
2018-07-15T21:34:26.073Z,4.90
2018-07-15T21:36:55.078Z,5.08
2018-07-15T21:39:24.711Z,5.85
2018-07-15T21:41:53.640Z,5.22
2018-07-15T21:44:22.032Z,4.67
2018-07-15T21:46:50.083Z,5.50
2018-07-15T21:49:18.761Z,4.78
2018-07-15T21:51:47.859Z,4.83
2018-07-15T21:54:16.882Z,4.80
2018-07-15T21:56:45.562Z,5.08
2018-07-15T21:59:14.557Z,4.60
2018-07-15T22:01:44.689Z,4.67
2018-07-15T22:04:13.468Z,5.35
2018-07-15T22:06:53.925Z,5.30
2018-07-15T22:09:34.447Z,5.05
2018-07-15T22:12:03.687Z,5.17
2018-07-15T22:14:31.958Z,5.70
2018-07-15T22:17:01.006Z,5.53
2018-07-15T22:19:30.510Z,5.53
2018-07-15T22:21:59.609Z,5.70
2018-07-15T22:24:27.845Z,5.50
2018-07-15T22:26:56.502Z,5.30
2018-07-15T22:29:25.326Z,5.70
2018-07-15T22:31:53.960Z,5.25
2018-07-15T22:34:23.007Z,5.85
2018-07-15T22:36:51.468Z,5.60
2018-07-15T22:39:20.725Z,5.17
2018-07-15T22:41:49.787Z,5.83
2018-07-15T22:44:18.717Z,5.87
2018-07-15T22:46:48.932Z,5.67
2018-07-15T22:49:17.957Z,5.83
2018-07-15T22:51:46.842Z,5.50
2018-07-15T22:54:15.912Z,5.50
2018-07-15T22:56:45.040Z,5.85
2018-07-15T22:59:13.658Z,5.33
2018-07-15T23:01:42.523Z,5.87
2018-07-15T23:04:11.442Z,5.90
2018-07-15T23:06:40.436Z,6.20
2018-07-15T23:09:10.054Z,5.90
2018-07-15T23:11:38.058Z,8.05
2018-07-15T23:14:06.814Z,5.83
2018-07-15T23:16:35.686Z,6.30
2018-07-15T23:19:04.611Z,5.72
2018-07-15T23:21:33.277Z,5.28
2018-07-15T23:24:02.690Z,5.05
2018-07-15T23:26:31.718Z,5.30
2018-07-15T23:29:00.574Z,5.50
2018-07-15T23:31:29.320Z,5.17
2018-07-15T23:33:58.457Z,8.65
2018-07-15T23:36:27.932Z,5.87
2018-07-15T23:38:56.656Z,5.35
2018-07-15T23:41:26.758Z,5.95
2018-07-15T23:43:55.246Z,5.08
2018-07-15T23:46:23.821Z,5.22
2018-07-15T23:48:53.430Z,5.53
2018-07-15T23:51:21.834Z,5.67
2018-07-15T23:53:50.670Z,7.45
2018-07-15T23:56:20.241Z,7.15
2018-07-15T23:58:49.601Z,6.20
